createdAt,value
2019-02-07T00:00:39.943Z,22.05
2019-02-07T00:03:08.957Z,21.62
2019-02-07T00:05:38.003Z,20.45
2019-02-07T00:08:07.028Z,21.65
2019-02-07T00:10:36.544Z,20.77
2019-02-07T00:13:05.577Z,21.40
2019-02-07T00:15:36.545Z,22.13
2019-02-07T00:18:05.449Z,20.88
2019-02-07T00:20:34.530Z,20.82
2019-02-07T00:23:03.643Z,21.57
2019-02-07T00:25:33.036Z,21.23
2019-02-07T00:28:02.089Z,20.62
2019-02-07T00:30:31.097Z,21.55
2019-02-07T00:33:00.141Z,21.05
2019-02-07T00:35:29.162Z,20.97
2019-02-07T00:37:58.214Z,21.15
2019-02-07T00:40:27.419Z,20.43
2019-02-07T00:42:56.520Z,21.25
2019-02-07T00:45:25.544Z,20.93
2019-02-07T00:47:54.616Z,20.00
2019-02-07T00:50:23.663Z,21.00
2019-02-07T00:52:52.723Z,20.45
2019-02-07T00:55:22.206Z,21.35
2019-02-07T00:57:51.234Z,20.90
2019-02-07T01:00:22.394Z,20.88
2019-02-07T01:02:51.491Z,20.68
2019-02-07T01:05:21.355Z,20.93
2019-02-07T01:07:50.415Z,21.42
2019-02-07T01:10:21.852Z,20.40
2019-02-07T01:12:50.856Z,21.05
2019-02-07T01:15:19.939Z,21.27
2019-02-07T01:17:49.006Z,20.32
2019-02-07T01:20:18.037Z,20.60
2019-02-07T01:22:47.042Z,21.15
2019-02-07T01:25:18.603Z,20.93
2019-02-07T01:27:47.805Z,20.40
2019-02-07T01:30:19.115Z,20.17
2019-02-07T01:32:50.349Z,19.85
2019-02-07T01:35:19.388Z,19.60
2019-02-07T01:37:48.425Z,19.65
2019-02-07T01:40:18.208Z,20.70
2019-02-07T01:42:47.344Z,20.17
2019-02-07T01:45:18.709Z,19.93
2019-02-07T01:47:47.722Z,19.75
2019-02-07T01:50:18.058Z,20.40
2019-02-07T01:52:47.407Z,19.98
2019-02-07T01:55:16.453Z,19.73
2019-02-07T01:57:45.479Z,20.75
2019-02-07T02:00:16.288Z,19.70
2019-02-07T02:02:45.351Z,19.77
2019-02-07T02:05:15.370Z,20.77
2019-02-07T02:07:44.693Z,19.65
2019-02-07T02:10:25.343Z,19.80
2019-02-07T02:12:54.364Z,19.20
2019-02-07T02:15:25.076Z,19.60
2019-02-07T02:17:54.495Z,19.75
2019-02-07T02:20:25.628Z,19.60
2019-02-07T02:22:55.251Z,19.48
2019-02-07T02:25:24.366Z,19.87
2019-02-07T02:27:53.389Z,19.60
2019-02-07T02:30:30.487Z,19.73
2019-02-07T02:32:59.792Z,18.40
2019-02-07T02:35:28.819Z,18.77
2019-02-07T02:37:57.841Z,19.20
2019-02-07T02:40:26.881Z,18.50
2019-02-07T02:42:55.973Z,18.70
2019-02-07T02:45:36.596Z,19.13
2019-02-07T02:47:55.838Z,19.70
2019-02-07T02:50:24.989Z,19.37
2019-02-07T02:52:54.029Z,19.95
2019-02-07T02:55:34.518Z,17.90
2019-02-07T02:58:03.555Z,18.30
2019-02-07T03:01:03.881Z,18.57
2019-02-07T03:03:40.524Z,17.60
2019-02-07T03:06:27.120Z,19.12
2019-02-07T03:09:14.000Z,18.42
2019-02-07T03:12:01.970Z,19.25
2019-02-07T03:14:48.575Z,18.27
2019-02-07T03:17:45.651Z,18.67
2019-02-07T03:20:32.345Z,18.77
2019-02-07T03:23:20.520Z,18.23
2019-02-07T03:26:14.549Z,18.80
2019-02-07T03:29:13.699Z,17.87
2019-02-07T03:32:00.490Z,19.37
2019-02-07T03:34:57.421Z,18.17
2019-02-07T03:37:41.872Z,18.60
2019-02-07T03:40:45.286Z,18.80
2019-02-07T03:43:32.034Z,17.20
2019-02-07T03:46:20.010Z,18.02
2019-02-07T03:48:59.198Z,19.10
2019-02-07T03:52:05.649Z,18.35
2019-02-07T03:54:56.723Z,17.70
2019-02-07T03:57:50.583Z,18.20
2019-02-07T04:00:47.653Z,17.87
2019-02-07T04:03:44.894Z,19.07
2019-02-07T04:06:40.212Z,17.48
2019-02-07T04:09:27.197Z,17.87
2019-02-07T04:12:15.181Z,18.35
2019-02-07T04:15:01.689Z,17.95
2019-02-07T04:17:50.154Z,18.55
2019-02-07T04:20:53.250Z,17.23
2019-02-07T04:23:41.199Z,17.12
2019-02-07T04:26:29.186Z,17.52
2019-02-07T04:29:20.350Z,18.52
2019-02-07T04:32:23.702Z,18.23
2019-02-07T04:35:01.014Z,17.57
2019-02-07T04:37:52.044Z,17.62
2019-02-07T04:40:34.742Z,18.62
2019-02-07T04:43:25.781Z,18.52
2019-02-07T04:46:26.625Z,18.62
2019-02-07T04:48:57.723Z,17.92
2019-02-07T04:51:48.467Z,17.62
2019-02-07T04:54:32.909Z,17.65
2019-02-07T04:57:20.856Z,17.67
2019-02-07T05:00:14.839Z,18.25
2019-02-07T05:03:21.083Z,17.37
2019-02-07T05:06:27.199Z,17.05
2019-02-07T05:09:13.050Z,17.07
2019-02-07T05:12:07.047Z,16.60
2019-02-07T05:14:50.158Z,17.07
2019-02-07T05:17:56.563Z,16.10
2019-02-07T05:20:48.428Z,16.03
2019-02-07T05:23:48.762Z,16.35
2019-02-07T05:26:49.110Z,15.88
2019-02-07T05:29:40.538Z,16.45
2019-02-07T05:32:36.328Z,15.90
2019-02-07T05:35:35.123Z,16.15
2019-02-07T05:38:20.424Z,16.12
2019-02-07T05:41:07.266Z,16.93
2019-02-07T05:44:10.987Z,16.23
2019-02-07T05:49:57.712Z,15.53
2019-02-07T05:52:57.890Z,15.58
2019-02-07T05:55:54.901Z,15.45
2019-02-07T05:58:52.224Z,15.45
2019-02-07T06:01:37.688Z,16.20
2019-02-07T06:04:37.191Z,15.48
2019-02-07T06:07:23.774Z,15.72
2019-02-07T06:10:27.019Z,14.80
2019-02-07T06:13:13.898Z,15.60
2019-02-07T06:16:10.995Z,15.08
2019-02-07T06:18:58.250Z,15.38
2019-02-07T06:21:48.105Z,15.63
2019-02-07T06:24:54.132Z,15.93
2019-02-07T06:27:43.486Z,15.88
2019-02-07T06:30:48.048Z,15.67
2019-02-07T06:33:36.307Z,15.10
2019-02-07T06:36:32.180Z,14.63
2019-02-07T06:39:28.493Z,15.38
2019-02-07T06:42:20.553Z,15.05
2019-02-07T06:45:06.132Z,16.13
2019-02-07T06:48:11.542Z,15.75
2019-02-07T06:50:58.259Z,15.35
2019-02-07T06:53:45.158Z,16.77
2019-02-07T06:56:32.706Z,17.15
2019-02-07T06:59:23.839Z,16.87
2019-02-07T07:02:11.828Z,17.35
2019-02-07T07:05:02.834Z,18.37
2019-02-07T07:08:02.840Z,18.02
2019-02-07T07:10:57.065Z,18.35
2019-02-07T07:13:48.398Z,18.25
2019-02-07T07:16:54.756Z,18.00
2019-02-07T07:19:48.973Z,18.50
2019-02-07T07:22:36.269Z,18.42
2019-02-07T07:25:24.740Z,17.20
2019-02-07T07:28:11.572Z,17.98
2019-02-07T07:30:58.406Z,18.35
2019-02-07T07:33:44.640Z,18.35
2019-02-07T07:36:44.875Z,17.67
2019-02-07T07:39:38.967Z,18.20
2019-02-07T07:42:38.820Z,17.90
2019-02-07T07:45:23.548Z,17.48
2019-02-07T07:48:23.794Z,42.40
2019-02-07T07:51:30.100Z,18.25
2019-02-07T07:54:10.380Z,17.98
2019-02-07T07:57:14.244Z,17.87
2019-02-07T08:00:07.979Z,18.87
2019-02-07T08:03:14.435Z,19.25
2019-02-07T08:05:56.240Z,18.55
2019-02-07T08:08:42.824Z,19.23
2019-02-07T08:11:29.756Z,19.32
2019-02-07T08:14:26.756Z,20.37
2019-02-07T08:17:05.843Z,19.73
2019-02-07T08:20:12.361Z,20.45
2019-02-07T08:23:09.448Z,20.30
2019-02-07T08:25:56.570Z,20.23
2019-02-07T08:28:56.996Z,20.52
2019-02-07T08:31:35.230Z,21.82
2019-02-07T08:34:21.981Z,20.25
2019-02-07T08:37:28.663Z,20.27
2019-02-07T08:40:31.947Z,20.05
2019-02-07T08:43:23.138Z,19.65
2019-02-07T08:46:10.279Z,21.17
2019-02-07T08:49:01.124Z,21.02
2019-02-07T08:52:02.203Z,23.80
2019-02-07T08:55:08.440Z,22.73
2019-02-07T08:57:55.962Z,24.00
2019-02-07T09:00:29.657Z,25.90
2019-02-07T09:03:17.719Z,23.52
2019-02-07T09:05:58.601Z,16.32
2019-02-07T09:08:45.359Z,14.33
2019-02-07T09:11:51.751Z,11.40
2019-02-07T09:14:43.207Z,10.88
2019-02-07T09:17:29.908Z,9.63
2019-02-07T09:20:18.008Z,8.93
2019-02-07T09:23:01.149Z,6.25
2019-02-07T09:25:58.202Z,4.33
2019-02-07T09:28:45.386Z,3.17
2019-02-07T09:31:39.443Z,3.12
2019-02-07T09:34:17.621Z,3.58
2019-02-07T09:37:15.362Z,3.00
2019-02-07T09:40:04.160Z,3.40
2019-02-07T09:43:10.306Z,4.15
2019-02-07T09:45:57.337Z,3.27
2019-02-07T09:48:44.249Z,4.25
2019-02-07T09:51:44.269Z,3.98
2019-02-07T09:54:44.579Z,3.65
2019-02-07T09:57:38.627Z,3.70
2019-02-07T10:00:27.530Z,4.25
2019-02-07T10:03:15.846Z,4.10
2019-02-07T10:06:06.855Z,4.25
2019-02-07T10:09:03.797Z,4.25
2019-02-07T10:12:03.852Z,4.53
2019-02-07T10:14:45.461Z,4.30
2019-02-07T10:17:32.131Z,4.87
2019-02-07T10:20:30.835Z,4.08
2019-02-07T10:23:18.381Z,4.05
2019-02-07T10:26:05.186Z,4.53
2019-02-07T10:29:05.176Z,5.05
2019-02-07T10:32:02.269Z,4.75
2019-02-07T10:34:50.275Z,3.80
2019-02-07T10:37:37.449Z,4.33
2019-02-07T10:40:34.877Z,4.30
2019-02-07T10:43:36.087Z,4.47
2019-02-07T10:46:24.765Z,4.40
2019-02-07T10:49:16.107Z,4.85
2019-02-07T10:52:10.183Z,4.17
2019-02-07T10:54:49.158Z,4.40
2019-02-07T10:57:36.002Z,4.35
2019-02-07T11:00:31.170Z,4.50
2019-02-07T11:03:13.615Z,4.08
2019-02-07T11:06:00.613Z,4.22
2019-02-07T11:08:37.536Z,4.30
2019-02-07T11:11:14.895Z,3.95
2019-02-07T11:14:10.168Z,4.12
2019-02-07T11:17:07.481Z,4.33
2019-02-07T11:19:54.299Z,4.30
2019-02-07T11:22:48.212Z,4.58
2019-02-07T11:25:42.059Z,4.50
2019-02-07T11:28:18.985Z,4.10
2019-02-07T11:31:13.074Z,4.33
2019-02-07T11:33:59.971Z,4.70
2019-02-07T11:37:03.402Z,4.45
2019-02-07T11:42:32.206Z,4.37
2019-02-07T11:45:32.868Z,4.08
2019-02-07T11:48:27.518Z,4.37
2019-02-07T11:51:21.771Z,4.05
2019-02-07T11:54:27.976Z,3.50
2019-02-07T11:57:15.990Z,5.20
2019-02-07T12:00:03.777Z,4.42
2019-02-07T12:02:51.820Z,4.22
2019-02-07T12:05:50.713Z,4.10
2019-02-07T12:08:47.933Z,4.05
2019-02-07T12:11:38.480Z,4.12
2019-02-07T12:14:31.185Z,4.58
2019-02-07T12:17:17.753Z,4.05
2019-02-07T12:20:08.539Z,4.00
2019-02-07T12:22:49.542Z,3.75
2019-02-07T12:25:40.381Z,3.80
2019-02-07T12:28:27.749Z,4.25
2019-02-07T12:31:18.745Z,4.03
2019-02-07T12:33:58.806Z,4.28
2019-02-07T12:36:38.441Z,4.00
2019-02-07T12:39:45.786Z,3.30
2019-02-07T12:42:30.566Z,3.42
2019-02-07T12:45:13.957Z,3.20
2019-02-07T12:48:08.242Z,4.00
2019-02-07T12:50:57.561Z,3.55
2019-02-07T12:53:39.273Z,4.00
2019-02-07T12:56:26.647Z,3.47
2019-02-07T12:59:13.305Z,3.40
2019-02-07T13:02:10.449Z,3.15
2019-02-07T13:05:01.271Z,2.92
2019-02-07T13:07:48.137Z,2.72
2019-02-07T13:10:42.862Z,3.37
2019-02-07T13:13:26.044Z,3.05
2019-02-07T13:16:09.921Z,3.77
2019-02-07T13:19:16.238Z,3.15
2019-02-07T13:22:01.584Z,3.20
2019-02-07T13:24:39.826Z,3.15
2019-02-07T13:27:26.626Z,2.90
2019-02-07T13:30:19.346Z,3.20
2019-02-07T13:33:05.756Z,3.00
2019-02-07T13:35:52.429Z,4.22
2019-02-07T13:38:40.424Z,2.75
2019-02-07T13:41:27.688Z,2.77
2019-02-07T13:44:15.677Z,3.05
2019-02-07T13:47:21.776Z,3.40
2019-02-07T13:50:08.243Z,3.20
2019-02-07T13:52:56.282Z,3.45
2019-02-07T13:55:53.678Z,3.17
2019-02-07T13:58:47.796Z,3.27
2019-02-07T14:01:38.583Z,2.62
2019-02-07T14:04:25.080Z,2.47
2019-02-07T14:07:15.860Z,3.15
2019-02-07T14:10:09.731Z,3.85
2019-02-07T14:12:57.333Z,3.02
2019-02-07T14:15:42.333Z,3.02
2019-02-07T14:21:52.574Z,4.97
2019-02-07T14:24:40.939Z,4.70
2019-02-07T14:27:20.766Z,2.70
2019-02-07T14:30:08.298Z,2.62
2019-02-07T14:32:56.307Z,2.47
2019-02-07T14:35:43.095Z,2.97
2019-02-07T14:38:25.868Z,2.98
2019-02-07T14:41:07.329Z,2.62
2019-02-07T14:44:01.386Z,3.08
2019-02-07T14:46:55.705Z,2.85
2019-02-07T14:49:24.862Z,3.40
2019-02-07T14:51:54.425Z,2.58
2019-02-07T14:54:23.508Z,2.75
2019-02-07T14:56:52.551Z,2.95
2019-02-07T14:59:21.684Z,2.60
2019-02-07T15:01:50.768Z,2.75
2019-02-07T15:04:19.900Z,2.80
2019-02-07T15:06:49.067Z,2.20
2019-02-07T15:09:20.417Z,2.20
2019-02-07T15:11:49.481Z,3.47
2019-02-07T15:14:18.554Z,2.85
2019-02-07T15:16:47.820Z,2.75
2019-02-07T15:19:16.933Z,2.77
2019-02-07T15:21:46.011Z,2.83
2019-02-07T15:24:15.180Z,3.55
2019-02-07T15:26:44.354Z,5.55
2019-02-07T15:29:15.993Z,4.95
2019-02-07T15:31:44.431Z,4.00
2019-02-07T15:34:13.475Z,3.33
2019-02-07T15:36:44.807Z,2.60
2019-02-07T15:39:15.985Z,2.95
2019-02-07T15:41:45.078Z,2.60
2019-02-07T15:44:14.183Z,2.75
2019-02-07T15:46:43.269Z,2.58
2019-02-07T15:49:12.352Z,3.00
2019-02-07T15:51:41.588Z,2.42
2019-02-07T15:54:10.634Z,2.77
2019-02-07T15:56:39.840Z,4.10
2019-02-07T15:59:17.543Z,3.45
2019-02-07T16:01:54.544Z,3.52
2019-02-07T16:04:33.491Z,5.35
2019-02-07T16:07:02.630Z,2.90
2019-02-07T16:09:31.774Z,3.47
2019-02-07T16:12:00.922Z,2.70
2019-02-07T16:14:30.046Z,2.95
2019-02-07T16:16:59.623Z,3.42
2019-02-07T16:19:28.730Z,3.02
2019-02-07T16:21:58.008Z,2.47
2019-02-07T16:24:27.081Z,2.50
2019-02-07T16:26:56.226Z,2.35
2019-02-07T16:29:25.291Z,2.42
2019-02-07T16:31:54.950Z,4.37
2019-02-07T16:34:24.064Z,5.42
2019-02-07T16:36:53.139Z,3.98
2019-02-07T16:39:22.202Z,5.35
2019-02-07T16:41:51.368Z,2.80
2019-02-07T16:44:20.529Z,2.83
2019-02-07T16:46:50.020Z,3.05
2019-02-07T16:49:19.194Z,2.87
2019-02-07T16:51:48.239Z,2.67
2019-02-07T16:54:17.345Z,2.95
2019-02-07T16:56:46.443Z,4.72
2019-02-07T16:59:15.569Z,3.33
2019-02-07T17:01:44.766Z,3.65
2019-02-07T17:04:13.886Z,3.50
2019-02-07T17:06:42.950Z,4.55
2019-02-07T17:09:33.856Z,3.20
2019-02-07T17:12:02.924Z,3.27
2019-02-07T17:14:32.227Z,3.10
2019-02-07T17:17:01.293Z,3.95
2019-02-07T17:19:30.393Z,3.90
2019-02-07T17:21:59.475Z,4.50
2019-02-07T17:24:28.576Z,3.83
2019-02-07T17:26:57.659Z,3.90
2019-02-07T17:29:26.782Z,3.40
2019-02-07T17:31:55.924Z,5.40
2019-02-07T17:34:25.070Z,4.87
2019-02-07T17:36:54.197Z,3.50
2019-02-07T17:39:23.454Z,4.03
2019-02-07T17:41:52.717Z,3.37
2019-02-07T17:44:22.184Z,4.80
2019-02-07T17:46:51.346Z,3.65
2019-02-07T17:49:20.634Z,3.40
2019-02-07T17:51:49.737Z,2.95
2019-02-07T17:54:19.299Z,3.10
2019-02-07T17:56:48.392Z,3.17
2019-02-07T17:59:17.827Z,3.00
2019-02-07T18:01:47.025Z,3.47
2019-02-07T18:04:16.250Z,3.67
2019-02-07T18:06:45.409Z,3.33
2019-02-07T18:09:14.540Z,3.17
2019-02-07T18:11:43.742Z,3.05
2019-02-07T18:14:12.876Z,3.50
2019-02-07T18:16:42.059Z,2.95
2019-02-07T18:19:11.186Z,2.92
2019-02-07T18:21:40.415Z,2.98
2019-02-07T18:24:09.494Z,2.65
2019-02-07T18:26:38.645Z,2.60
2019-02-07T18:29:07.735Z,2.77
2019-02-07T18:31:36.895Z,2.47
2019-02-07T18:34:06.087Z,2.50
2019-02-07T18:37:32.044Z,2.70
2019-02-07T18:40:31.492Z,2.70
2019-02-07T18:54:32.014Z,2.55
2019-02-07T18:57:01.158Z,2.60
2019-02-07T18:59:30.272Z,2.17
2019-02-07T19:01:59.591Z,2.25
2019-02-07T19:04:28.739Z,2.60
2019-02-07T19:06:57.883Z,2.37
2019-02-07T19:09:26.989Z,2.55
2019-02-07T19:11:56.117Z,2.73
2019-02-07T19:14:25.278Z,2.77
2019-02-07T19:18:16.858Z,2.42
2019-02-07T19:20:46.070Z,2.60
2019-02-07T19:27:27.879Z,2.40
2019-02-07T19:29:57.060Z,2.20
2019-02-07T19:32:26.318Z,2.42
2019-02-07T19:34:55.736Z,2.25
2019-02-07T19:37:24.813Z,2.30
2019-02-07T19:39:53.981Z,2.35
2019-02-07T19:42:23.075Z,2.30
2019-02-07T19:44:52.272Z,2.40
2019-02-07T19:47:21.528Z,2.70
2019-02-07T19:49:56.306Z,2.47
2019-02-07T19:52:25.457Z,2.20
2019-02-07T19:54:54.591Z,2.58
2019-02-07T19:57:23.699Z,2.37
2019-02-07T19:59:53.169Z,2.30
2019-02-07T20:02:22.304Z,2.60
2019-02-07T20:04:51.768Z,2.30
2019-02-07T20:07:21.324Z,2.33
2019-02-07T20:09:50.461Z,2.40
2019-02-07T20:12:19.592Z,2.52
2019-02-07T20:14:51.996Z,2.40
2019-02-07T20:17:21.194Z,2.25
2019-02-07T20:19:50.568Z,2.47
2019-02-07T20:22:20.582Z,2.72
2019-02-07T20:24:49.715Z,2.80
2019-02-07T20:27:18.897Z,2.83
2019-02-07T20:29:48.024Z,2.65
2019-02-07T20:32:17.144Z,2.70
2019-02-07T20:34:46.329Z,2.70
2019-02-07T20:37:15.991Z,3.10
2019-02-07T20:39:46.081Z,2.85
2019-02-07T20:42:15.267Z,2.37
2019-02-07T20:44:44.394Z,2.45
2019-02-07T20:47:13.546Z,2.90
2019-02-07T20:49:42.706Z,2.85
2019-02-07T20:52:11.845Z,19.32
2019-02-07T20:54:41.090Z,5.55
2019-02-07T20:57:10.234Z,2.75
2019-02-07T20:59:39.399Z,2.95
2019-02-07T21:02:08.499Z,2.83
2019-02-07T21:04:38.228Z,2.85
2019-02-07T21:07:07.836Z,2.65
2019-02-07T21:09:37.531Z,3.30
2019-02-07T21:12:06.766Z,2.92
2019-02-07T21:14:35.977Z,2.70
2019-02-07T21:17:05.058Z,2.80
2019-02-07T21:19:34.225Z,2.85
2019-02-07T21:22:03.342Z,2.70
2019-02-07T21:24:32.520Z,3.00
2019-02-07T21:27:01.995Z,3.17
2019-02-07T21:29:31.114Z,3.00
2019-02-07T21:32:00.279Z,2.60
2019-02-07T21:34:29.343Z,2.50
2019-02-07T21:37:01.550Z,2.27
2019-02-07T21:39:30.787Z,2.50
2019-02-07T21:42:00.009Z,2.40
2019-02-07T21:44:29.114Z,2.55
2019-02-07T21:46:58.326Z,2.58
2019-02-07T21:49:27.526Z,2.67
2019-02-07T21:51:56.707Z,2.77
2019-02-07T21:54:25.776Z,2.10
2019-02-07T21:56:55.025Z,2.60
2019-02-07T21:59:24.329Z,2.58
2019-02-07T22:01:53.488Z,2.62
2019-02-07T22:04:22.696Z,2.37
2019-02-07T22:06:51.824Z,2.20
2019-02-07T22:09:20.967Z,2.12
2019-02-07T22:11:50.076Z,2.72
2019-02-07T22:14:19.542Z,2.55
2019-02-07T22:16:48.601Z,2.60
2019-02-07T22:19:17.679Z,2.67
2019-02-07T22:21:46.837Z,2.47
2019-02-07T22:24:15.927Z,2.22
2019-02-07T22:26:45.023Z,2.45
2019-02-07T22:29:14.098Z,2.33
2019-02-07T22:31:43.170Z,2.40
2019-02-07T22:34:12.229Z,2.40
2019-02-07T22:36:41.409Z,2.20
2019-02-07T22:39:10.507Z,3.02
2019-02-07T22:41:39.773Z,2.30
2019-02-07T22:44:08.856Z,2.70
2019-02-07T22:46:38.060Z,2.45
2019-02-07T22:49:07.145Z,2.65
2019-02-07T22:51:36.247Z,2.40
2019-02-07T22:54:05.514Z,2.72
2019-02-07T22:56:34.597Z,2.47
2019-02-07T22:59:03.743Z,2.60
2019-02-07T23:01:42.836Z,2.67
2019-02-07T23:04:11.940Z,2.60
2019-02-07T23:06:41.071Z,2.35
2019-02-07T23:09:11.889Z,2.22
2019-02-07T23:11:41.020Z,2.67
2019-02-07T23:14:10.417Z,2.45
2019-02-07T23:16:39.493Z,2.42
2019-02-07T23:19:08.575Z,2.55
2019-02-07T23:21:37.638Z,2.50
2019-02-07T23:24:06.714Z,2.62
2019-02-07T23:26:35.793Z,2.67
2019-02-07T23:29:04.915Z,2.47
2019-02-07T23:31:37.074Z,2.58
2019-02-07T23:34:06.462Z,2.87
2019-02-07T23:36:35.522Z,2.33
2019-02-07T23:39:07.156Z,2.50
2019-02-07T23:41:36.233Z,2.60
2019-02-07T23:44:06.559Z,2.20
2019-02-07T23:46:35.655Z,2.67
2019-02-07T23:49:04.745Z,2.70
2019-02-07T23:51:33.910Z,2.35
2019-02-07T23:54:03.090Z,2.70
2019-02-07T23:56:32.175Z,2.30
2019-02-07T23:59:01.270Z,2.45
